Time;durP1;ratioP1;P1;durP2;ratioP2;P2;SDS_P1;SDS_P2;PMS_P1;PMS_P2;Temp;Humidity;BMP_temperature;BMP_pressure;BME280_temperature;BME280_humidity;BME280_pressure;Samples;Min_cycle;Max_cycle;Signal;HPM_P1;HPM_P2
2023/06/21 00:00:41;;;;;;;6.27;3.63;;;;;;;21.69;66.87;99083.53;6246088;23;20150;-83
2023/06/21 00:03:08;;;;;;;5.93;3.60;;;;;;;21.69;67.02;99080.88;6246022;23;20149;-83
2023/06/21 00:05:34;;;;;;;6.30;3.40;;;;;;;21.66;66.87;99083.00;6245953;23;20224;-84
2023/06/21 00:07:59;;;;;;;5.33;2.97;;;;;;;21.61;66.97;99085.28;6246329;23;20183;-83
2023/06/21 00:10:28;;;;;;;7.00;3.23;;;;;;;21.63;66.93;99080.63;6245906;23;20177;-83
2023/06/21 00:12:55;;;;;;;5.67;3.37;;;;;;;21.64;66.89;99084.97;6246173;23;20152;-83
2023/06/21 00:15:23;;;;;;;5.03;3.00;;;;;;;21.69;66.23;99077.34;6245748;23;20252;-84
2023/06/21 00:17:50;;;;;;;6.17;3.10;;;;;;;21.74;65.86;99083.91;6219640;23;20149;-83
2023/06/21 00:20:17;;;;;;;5.87;3.30;;;;;;;21.78;65.41;99089.75;6245818;23;20215;-83
2023/06/21 00:22:45;;;;;;;4.83;3.20;;;;;;;21.73;65.39;99081.38;6245862;23;20145;-83
2023/06/21 00:25:13;;;;;;;4.53;2.83;;;;;;;21.57;65.67;99073.22;6245868;23;20141;-83
2023/06/21 00:27:42;;;;;;;9.23;3.87;;;;;;;21.47;66.05;99083.97;6245892;23;20156;-83
2023/06/21 00:30:09;;;;;;;6.13;3.43;;;;;;;21.38;66.46;99074.22;6245862;23;20161;-83
2023/06/21 00:32:38;;;;;;;8.30;3.37;;;;;;;21.35;66.66;99078.00;6219673;23;20153;-83
2023/06/21 00:35:05;;;;;;;7.37;3.37;;;;;;;21.37;66.69;99083.19;6245953;23;20184;-83
2023/06/21 00:37:31;;;;;;;4.90;3.23;;;;;;;21.35;66.77;99086.00;6245726;23;20160;-83
2023/06/21 00:39:56;;;;;;;5.60;3.33;;;;;;;21.30;67.12;99082.13;6245855;23;20149;-83
2023/06/21 00:42:23;;;;;;;6.30;3.10;;;;;;;21.26;67.40;99078.91;6245624;23;20195;-83
2023/06/21 00:44:50;;;;;;;5.37;3.27;;;;;;;21.25;67.49;99084.38;6245844;23;20577;-83
2023/06/21 00:47:18;;;;;;;7.40;3.83;;;;;;;21.19;67.44;99079.66;6219267;23;20159;-82
2023/06/21 00:49:43;;;;;;;6.33;3.93;;;;;;;21.09;67.67;99085.03;6245911;23;20149;-83
2023/06/21 00:52:11;;;;;;;9.00;3.63;;;;;;;21.07;67.77;99094.97;6245499;23;20144;-83
2023/06/21 00:54:37;;;;;;;5.87;3.63;;;;;;;21.06;67.99;99088.00;6245444;23;20173;-83
2023/06/21 00:57:04;;;;;;;6.47;3.63;;;;;;;21.07;67.86;99096.84;6219255;23;20236;-83
2023/06/21 00:59:31;;;;;;;5.63;3.53;;;;;;;21.12;67.64;99097.22;6245484;23;20153;-83
2023/06/21 01:02:00;;;;;;;7.50;3.87;;;;;;;21.11;67.37;99090.22;6245425;23;20467;-83
2023/06/21 01:04:28;;;;;;;7.03;3.43;;;;;;;21.04;67.45;99083.75;6245603;23;20654;-83
2023/06/21 01:07:45;;;;;;;9.67;4.07;;;;;;;20.98;67.37;99087.84;6219065;23;20513;-83
2023/06/21 01:10:38;;;;;;;9.77;3.57;;;;;;;20.93;67.65;99092.78;6123896;23;20230;-83
2023/06/21 01:13:48;;;;;;;6.47;3.50;;;;;;;20.85;67.55;99092.69;6124096;23;20608;-83
2023/06/21 01:16:17;;;;;;;5.80;3.47;;;;;;;20.71;68.44;99103.78;6123592;23;20376;-83
2023/06/21 01:18:47;;;;;;;6.70;3.67;;;;;;;20.62;68.70;99091.38;6123975;23;20152;-83
2023/06/21 01:21:18;;;;;;;13.13;3.70;;;;;;;20.66;67.84;99087.41;6245336;23;20144;-83
2023/06/21 01:24:13;;;;;;;8.27;3.80;;;;;;;20.69;67.91;99090.63;6245627;23;20125;-83
2023/06/21 01:27:06;;;;;;;5.13;3.33;;;;;;;20.64;68.34;99084.06;6245516;23;20471;-83
2023/06/21 01:29:35;;;;;;;10.27;4.33;;;;;;;20.44;68.88;99085.91;6245224;23;20157;-83
2023/06/21 01:32:03;;;;;;;6.50;3.50;;;;;;;20.49;68.81;99086.31;6245586;23;20202;-84
2023/06/21 01:34:32;;;;;;;6.37;3.43;;;;;;;20.48;68.51;99089.16;6218961;23;20157;-83
2023/06/21 01:36:59;;;;;;;6.97;3.93;;;;;;;20.42;68.81;99089.72;6245180;23;20188;-83
2023/06/21 01:39:28;;;;;;;7.03;3.30;;;;;;;20.41;68.59;99088.06;6244883;23;20157;-82
2023/06/21 01:41:55;;;;;;;5.70;3.40;;;;;;;20.38;68.71;99083.00;6218717;23;20492;-83
2023/06/21 01:44:22;;;;;;;6.33;3.63;;;;;;;20.35;69.46;99091.28;6245458;23;20156;-83
2023/06/21 01:46:51;;;;;;;5.83;3.60;;;;;;;20.46;69.49;99086.66;6245343;23;20145;-83
2023/06/21 01:49:20;;;;;;;9.17;4.17;;;;;;;20.41;71.32;99080.91;6244890;23;20203;-83
2023/06/21 01:51:48;;;;;;;7.10;3.90;;;;;;;20.65;70.57;99091.06;6245282;23;20493;-83
2023/06/21 01:54:15;;;;;;;7.80;4.37;;;;;;;20.75;70.70;99083.88;6218665;23;20658;-83
2023/06/21 01:56:44;;;;;;;7.33;3.90;;;;;;;20.82;70.81;99090.31;6245318;23;20149;-83
2023/06/21 01:59:10;;;;;;;12.50;3.90;;;;;;;20.78;69.42;99088.91;6245182;23;20600;-83
2023/06/21 02:01:42;;;;;;;7.20;3.50;;;;;;;20.72;68.57;99084.19;6245459;23;20164;-83
2023/06/21 02:04:10;;;;;;;15.10;4.27;;;;;;;20.66;67.89;99093.59;6245381;23;20133;-83
2023/06/21 02:06:39;;;;;;;7.40;3.17;;;;;;;20.54;68.19;99085.91;6244967;23;20548;-83
2023/06/21 02:09:09;;;;;;;9.63;3.80;;;;;;;20.50;68.30;99084.50;6244976;23;20452;-83
2023/06/21 02:11:36;;;;;;;6.13;3.43;;;;;;;20.49;68.45;99091.66;6244989;23;20162;-83
2023/06/21 02:14:02;;;;;;;8.37;3.50;;;;;;;20.48;68.83;99091.81;6245322;23;20611;-83
2023/06/21 02:16:30;;;;;;;11.30;3.77;;;;;;;20.38;69.28;99089.19;6245103;23;20184;-83
2023/06/21 02:18:57;;;;;;;6.63;3.93;;;;;;;20.40;69.32;99087.22;6244979;23;20171;-83
2023/06/21 02:21:23;;;;;;;12.43;4.53;;;;;;;20.39;69.47;99090.03;6245076;23;20153;-83
2023/06/21 02:23:50;;;;;;;7.30;3.83;;;;;;;20.39;69.71;99088.19;6218613;23;20153;-83
2023/06/21 02:26:17;;;;;;;6.60;4.27;;;;;;;20.38;69.63;99089.19;6245349;23;20146;-83
2023/06/21 02:28:45;;;;;;;6.40;4.10;;;;;;;20.37;69.59;99097.28;6246931;23;20145;-83
2023/06/21 02:31:12;;;;;;;11.70;4.40;;;;;;;20.39;69.81;99100.69;6247065;23;20149;-83
2023/06/21 02:33:42;;;;;;;8.00;4.00;;;;;;;20.31;69.45;99098.69;6247082;23;20160;-83
2023/06/21 02:36:09;;;;;;;7.13;3.63;;;;;;;20.31;69.35;99103.22;6246993;23;20204;-83
2023/06/21 02:38:35;;;;;;;6.53;4.10;;;;;;;20.26;69.64;99097.47;6220304;23;20203;-83
2023/06/21 02:41:01;;;;;;;14.33;4.90;;;;;;;20.28;69.82;99092.84;6247008;23;20206;-83
2023/06/21 02:43:28;;;;;;;9.33;3.97;;;;;;;20.26;69.73;99095.63;6246834;23;20203;-83
2023/06/21 02:45:56;;;;;;;10.80;4.70;;;;;;;20.29;69.53;99094.50;6246989;23;20152;-83
2023/06/21 02:48:23;;;;;;;8.17;3.80;;;;;;;20.31;69.35;99100.53;6246778;23;20206;-82
2023/06/21 02:50:49;;;;;;;11.57;3.97;;;;;;;20.31;69.22;99098.69;6246558;23;20196;-83
2023/06/21 02:53:16;;;;;;;7.67;3.70;;;;;;;20.31;69.40;99098.69;6246755;23;20176;-83
2023/06/21 02:55:42;;;;;;;6.53;4.13;;;;;;;20.28;69.60;99098.16;6246904;23;20235;-83
2023/06/21 02:58:08;;;;;;;7.60;3.57;;;;;;;20.34;68.93;99110.88;6246697;23;20145;-83
2023/06/21 03:00:36;;;;;;;9.70;4.50;;;;;;;20.34;69.57;99109.06;6246856;23;20226;-83
2023/06/21 03:03:03;;;;;;;16.10;4.17;;;;;;;20.42;69.18;99105.69;6220413;23;20467;-83
2023/06/21 03:05:36;;;;;;;8.70;3.67;;;;;;;20.35;69.76;99112.56;6246562;23;20141;-83
2023/06/21 03:08:09;;;;;;;8.23;3.77;;;;;;;20.31;69.84;99122.66;6220357;23;20450;-83
2023/06/21 03:10:36;;;;;;;6.70;4.13;;;;;;;20.38;69.67;99120.28;6246725;23;20529;-83
2023/06/21 03:13:03;;;;;;;8.37;4.13;;;;;;;20.40;69.30;99119.16;6246723;23;20232;-83
2023/06/21 03:15:28;;;;;;;8.33;4.07;;;;;;;20.44;69.13;99125.03;6246563;23;20180;-83
2023/06/21 03:17:55;;;;;;;8.87;3.70;;;;;;;20.44;69.29;99125.03;6246705;23;20153;-83
2023/06/21 03:20:24;;;;;;;6.27;3.73;;;;;;;20.35;69.74;99125.88;6246480;23;20492;-83
2023/06/21 03:22:51;;;;;;;6.03;3.87;;;;;;;20.35;69.94;99125.88;6246650;23;20145;-83
2023/06/21 03:25:18;;;;;;;6.50;3.37;;;;;;;20.39;69.54;99124.63;6219791;23;20615;-83
2023/06/21 03:27:45;;;;;;;6.67;3.80;;;;;;;20.36;69.38;99127.56;6246657;23;20156;-83
2023/06/21 03:30:12;;;;;;;8.17;4.07;;;;;;;20.35;69.00;99131.22;6246605;23;20175;-82
2023/06/21 03:32:46;;;;;;;5.80;3.67;;;;;;;20.35;69.16;99126.72;6246543;23;20160;-83
2023/06/21 03:35:14;;;;;;;9.20;3.60;;;;;;;20.35;68.97;99131.22;6246239;23;20561;-83
2023/06/21 03:37:41;;;;;;;10.43;3.50;;;;;;;20.32;69.24;99128.81;6246411;23;20150;-83
2023/06/21 03:40:13;;;;;;;7.67;4.57;;;;;;;20.29;69.83;99126.44;6246290;23;20149;-82
2023/06/21 03:42:41;;;;;;;9.47;4.27;;;;;;;20.26;69.93;99129.41;6246313;23;20522;-83
2023/06/21 03:45:08;;;;;;;8.77;3.73;;;;;;;20.22;70.60;99132.31;6246244;23;20145;-83
2023/06/21 03:47:40;;;;;;;8.10;3.87;;;;;;;20.25;70.94;99130.38;6246174;23;20160;-83
2023/06/21 03:50:06;;;;;;;11.40;4.37;;;;;;;20.32;70.74;99134.16;6246313;23;20165;-83
2023/06/21 03:52:33;;;;;;;13.77;4.57;;;;;;;20.32;70.51;99140.31;6246162;23;20144;-83
2023/06/21 03:55:01;;;;;;;13.43;4.70;;;;;;;20.37;70.76;99139.88;6246095;23;20173;-83
2023/06/21 03:57:27;;;;;;;8.30;4.10;;;;;;;20.47;71.05;99138.91;6245582;23;20228;-83
2023/06/21 03:59:53;;;;;;;6.30;4.00;;;;;;;20.53;71.50;99145.47;6219861;23;20181;-83
2023/06/21 04:02:21;;;;;;;8.23;4.13;;;;;;;20.54;71.70;99141.84;6245899;23;20156;-83
2023/06/21 04:04:48;;;;;;;8.80;4.37;;;;;;;20.55;71.73;99133.69;6245771;23;20173;-82
2023/06/21 04:07:18;;;;;;;7.13;4.30;;;;;;;20.60;72.00;99141.25;6245880;23;20156;-83
2023/06/21 04:09:44;;;;;;;7.00;4.07;;;;;;;20.60;72.25;99147.41;6246077;23;20593;-83
2023/06/21 04:12:11;;;;;;;9.83;4.83;;;;;;;20.74;72.31;99135.47;6219577;23;20235;-83
2023/06/21 04:14:37;;;;;;;9.83;4.33;;;;;;;20.91;72.02;99139.22;6245722;23;20164;-83
2023/06/21 04:17:04;;;;;;;9.97;4.63;;;;;;;21.02;71.84;99147.84;6219532;23;20460;-83
2023/06/21 04:19:29;;;;;;;8.20;4.20;;;;;;;21.25;71.10;99143.84;6245598;23;20224;-83
2023/06/21 04:21:55;;;;;;;7.00;4.40;;;;;;;21.28;71.48;99143.56;6219482;23;20261;-83
2023/06/21 04:24:20;;;;;;;10.37;4.40;;;;;;;21.39;71.53;99132.72;6219243;23;20235;-83
2023/06/21 04:26:48;;;;;;;10.60;4.93;;;;;;;21.56;71.13;99130.25;6245685;23;20153;-83
2023/06/21 04:29:18;;;;;;;9.03;4.60;;;;;;;21.71;71.20;99132.25;6219164;23;20159;-83
2023/06/21 04:31:45;;;;;;;6.70;4.10;;;;;;;21.91;69.89;99130.28;6246018;23;20145;-83
2023/06/21 04:34:12;;;;;;;8.43;4.70;;;;;;;22.03;69.46;99131.75;6245693;23;20145;-83
2023/06/21 04:36:38;;;;;;;6.43;4.13;;;;;;;22.21;68.51;99137.91;6245557;23;20173;-83
2023/06/21 04:39:05;;;;;;;6.77;4.30;;;;;;;22.26;69.12;99140.97;6219413;23;20161;-83
2023/06/21 04:41:30;;;;;;;7.93;4.67;;;;;;;22.41;68.54;99138.56;6245332;23;20157;-83
2023/06/21 04:43:58;;;;;;;6.73;3.40;;;;;;;22.57;68.24;99142.22;6245789;23;20159;-83
2023/06/21 04:46:27;;;;;;;6.30;4.20;;;;;;;22.67;67.32;99138.66;6245707;23;20145;-83
2023/06/21 04:48:54;;;;;;;8.07;4.40;;;;;;;22.85;66.56;99142.09;6245707;23;20149;-83
2023/06/21 04:51:20;;;;;;;6.73;4.13;;;;;;;23.05;65.05;99140.88;6218920;23;20200;-82
2023/06/21 04:53:45;;;;;;;7.60;4.50;;;;;;;23.15;65.20;99146.94;6245687;23;20278;-83
2023/06/21 04:56:12;;;;;;;6.07;3.80;;;;;;;23.24;65.28;99141.44;6245460;23;20260;-83
2023/06/21 04:58:40;;;;;;;5.87;3.80;;;;;;;23.44;64.34;99144.75;6219137;23;20545;-83
2023/06/21 05:01:07;;;;;;;7.90;4.33;;;;;;;23.57;62.97;99134.44;6245714;23;20159;-83
2023/06/21 05:03:32;;;;;;;7.13;4.30;;;;;;;23.61;63.38;99149.16;6218787;23;20161;-83
2023/06/21 05:06:02;;;;;;;8.40;4.10;;;;;;;23.69;62.92;99142.97;6218928;23;20168;-83
2023/06/21 05:08:28;;;;;;;6.77;4.10;;;;;;;23.82;62.68;99146.88;6245469;23;20153;-83
2023/06/21 05:10:55;;;;;;;6.87;4.30;;;;;;;23.93;63.05;99150.22;6245637;23;20170;-83
2023/06/21 05:13:20;;;;;;;9.27;4.00;;;;;;;24.04;62.41;99152.59;6218772;23;20164;-83
2023/06/21 05:15:46;;;;;;;6.30;3.87;;;;;;;24.21;61.41;99149.78;6245364;23;20248;-83
2023/06/21 05:18:12;;;;;;;6.57;3.40;;;;;;;24.45;60.12;99157.00;6245511;23;20551;-83
2023/06/21 05:20:38;;;;;;;7.57;3.60;;;;;;;24.51;61.93;99150.97;6245425;23;20149;-83
2023/06/21 05:23:05;;;;;;;10.00;4.10;;;;;;;24.58;61.31;99151.16;6245534;23;20149;-83
2023/06/21 05:25:32;;;;;;;8.43;3.47;;;;;;;24.69;61.10;99166.88;6245187;23;20211;-84
2023/06/21 05:27:58;;;;;;;6.37;3.10;;;;;;;24.75;60.12;99167.03;6245486;23;20149;-84
2023/06/21 05:30:24;;;;;;;8.93;3.93;;;;;;;24.91;60.11;99163.53;6245326;23;20554;-84
2023/06/21 05:32:50;;;;;;;5.63;3.30;;;;;;;25.01;59.04;99165.00;6245156;23;20632;-84
2023/06/21 05:35:18;;;;;;;5.70;3.50;;;;;;;25.27;59.04;99162.09;6244814;23;20185;-84
2023/06/21 05:37:44;;;;;;;7.33;4.27;;;;;;;25.50;58.94;99170.25;6218610;23;20219;-84
2023/06/21 05:40:10;;;;;;;6.60;3.50;;;;;;;25.76;57.23;99170.78;6245038;23;20149;-83
2023/06/21 05:42:37;;;;;;;5.77;3.43;;;;;;;25.52;58.01;99169.03;6245595;23;20262;-84
2023/06/21 05:45:08;;;;;;;7.13;3.77;;;;;;;25.71;57.76;99166.97;6245238;23;20184;-84
2023/06/21 05:47:34;;;;;;;5.83;3.40;;;;;;;25.81;57.17;99168.44;6244529;22;20160;-84
2023/06/21 05:50:00;;;;;;;5.23;3.20;;;;;;;25.89;56.41;99164.84;6244942;23;20149;-84
2023/06/21 05:52:25;;;;;;;5.87;3.50;;;;;;;26.09;55.83;99172.28;6244974;23;20203;-84
2023/06/21 05:54:51;;;;;;;5.63;3.00;;;;;;;26.20;56.31;99163.00;6244951;23;20554;-85
2023/06/21 05:57:17;;;;;;;5.27;3.23;;;;;;;26.51;54.92;99169.13;6218378;23;20184;-84
2023/06/21 05:59:44;;;;;;;6.40;3.80;;;;;;;26.66;55.49;99171.84;6245282;23;20160;-84
2023/06/21 06:02:10;;;;;;;7.70;3.47;;;;;;;26.72;54.73;99168.44;6246266;23;20156;-84
2023/06/21 06:04:37;;;;;;;6.83;3.60;;;;;;;26.85;54.72;99160.63;6220179;23;20632;-84
2023/06/21 06:07:04;;;;;;;6.27;3.60;;;;;;;26.91;52.53;99167.97;6246910;23;20362;-84
2023/06/21 06:09:31;;;;;;;6.87;3.60;;;;;;;26.89;51.90;99169.16;6246841;23;20243;-84
2023/06/21 06:11:58;;;;;;;8.13;3.70;;;;;;;26.89;52.41;99169.97;6247141;23;20149;-84
2023/06/21 06:14:24;;;;;;;6.30;3.35;;;;;;;26.97;51.54;99171.75;6247060;23;20153;-84
2023/06/21 06:16:50;;;;;;;7.28;3.75;;;;;;;27.10;53.34;99170.09;6245961;23;20149;-84
2023/06/21 06:19:17;;;;;;;6.38;3.30;;;;;;;27.22;52.53;99171.31;6220157;23;20153;-84
2023/06/21 06:21:44;;;;;;;6.13;3.47;;;;;;;27.34;51.16;99164.44;6220518;23;20474;-84
2023/06/21 06:24:11;;;;;;;6.30;3.30;;;;;;;27.39;50.10;99170.13;6247010;23;20566;-84
2023/06/21 06:26:36;;;;;;;5.90;3.00;;;;;;;27.45;49.13;99176.63;6247145;23;20142;-84
2023/06/21 06:29:03;;;;;;;8.68;3.30;;;;;;;27.59;49.23;99173.09;6220350;23;20153;-85
2023/06/21 06:31:30;;;;;;;6.15;3.58;;;;;;;27.84;48.76;99169.03;6220224;23;20160;-84
2023/06/21 06:33:56;;;;;;;7.38;4.25;;;;;;;27.98;48.35;99175.41;6247054;23;20149;-84
2023/06/21 06:36:22;;;;;;;6.68;3.45;;;;;;;28.12;48.63;99174.53;6246959;23;20245;-85
2023/06/21 06:38:52;;;;;;;5.88;3.35;;;;;;;28.25;48.04;99173.88;6246575;23;20480;-85
2023/06/21 06:41:19;;;;;;;6.22;3.70;;;;;;;28.40;47.29;99167.38;6220291;23;20153;-85
2023/06/21 06:43:46;;;;;;;6.32;3.22;;;;;;;28.32;48.37;99164.81;6247097;23;20157;-85
2023/06/21 06:46:14;;;;;;;5.50;3.45;;;;;;;28.49;49.60;99158.13;6220390;23;20157;-85
2023/06/21 06:48:39;;;;;;;5.88;3.50;;;;;;;28.78;48.20;99161.69;6220103;23;20157;-86
2023/06/21 06:51:06;;;;;;;6.80;3.70;;;;;;;29.10;47.28;99158.41;6215029;23;20304;-85
2023/06/21 06:53:32;;;;;;;5.53;3.95;;;;;;;29.35;49.02;99162.31;6215799;23;20149;-86
2023/06/21 06:55:59;;;;;;;5.70;3.47;;;;;;;29.37;46.70;99160.25;6216447;23;20170;-86
2023/06/21 06:58:25;;;;;;;7.22;3.65;;;;;;;29.71;46.81;99152.13;6215932;23;20248;-86
2023/06/21 07:00:50;;;;;;;6.40;3.72;;;;;;;30.06;44.15;99152.84;6215215;23;20157;-85
2023/06/21 07:03:17;;;;;;;10.77;4.15;;;;;;;30.14;44.30;99157.22;6216070;23;20153;-86
2023/06/21 07:05:44;;;;;;;5.78;3.83;;;;;;;30.35;44.71;99154.34;6216548;23;20142;-86
2023/06/21 07:08:11;;;;;;;5.93;3.47;;;;;;;30.46;43.67;99151.06;6216458;23;20146;-86
2023/06/21 07:10:38;;;;;;;7.28;3.88;;;;;;;30.69;44.98;99145.22;6214787;23;20166;-86
2023/06/21 07:13:06;;;;;;;6.45;3.80;;;;;;;30.95;43.04;99145.25;6214896;23;20154;-86
2023/06/21 07:15:32;;;;;;;5.93;3.70;;;;;;;31.06;43.66;99146.47;6213538;23;20173;-87
2023/06/21 07:18:01;;;;;;;7.57;3.92;;;;;;;31.06;43.54;99141.06;6214618;23;20223;-86
2023/06/21 07:20:28;;;;;;;5.28;3.65;;;;;;;31.26;41.67;99144.56;6216146;23;20616;-87
2023/06/21 07:22:55;;;;;;;5.93;3.83;;;;;;;31.42;41.26;99141.41;6214803;23;20154;-87
2023/06/21 07:25:22;;;;;;;6.38;3.38;;;;;;;31.44;41.25;99147.44;6215701;23;20224;-87
2023/06/21 07:27:51;;;;;;;5.57;3.33;;;;;;;31.54;42.27;99145.13;6215902;23;20526;-87
2023/06/21 07:30:25;;;;;;;5.88;3.05;;;;;;;31.63;41.56;99149.25;6214775;23;20216;-88
2023/06/21 07:32:51;;;;;;;5.93;3.40;;;;;;;31.76;41.87;99141.06;6215977;23;20134;-87
2023/06/21 07:35:17;;;;;;;4.35;2.88;;;;;;;31.74;41.39;99140.44;6215380;23;20525;-87
2023/06/21 07:37:45;;;;;;;5.85;3.55;;;;;;;31.62;40.29;99150.31;6214642;23;20162;-87
2023/06/21 07:40:13;;;;;;;5.32;3.00;;;;;;;31.85;40.59;99145.19;6215745;23;20243;-87
2023/06/21 07:42:39;;;;;;;6.30;3.63;;;;;;;31.97;40.33;99140.72;6214782;23;20572;-87
2023/06/21 07:45:07;;;;;;;5.70;3.33;;;;;;;32.25;40.62;99144.97;6214464;23;20161;-87
2023/06/21 07:47:33;;;;;;;5.97;3.35;;;;;;;32.30;40.43;99147.88;6213828;23;20164;-88
2023/06/21 07:50:00;;;;;;;6.45;3.35;;;;;;;32.57;39.89;99146.66;6214517;23;20457;-87
2023/06/21 07:52:25;;;;;;;6.18;4.05;;;;;;;32.86;38.46;99148.69;6214097;23;20161;-88
2023/06/21 07:54:52;;;;;;;6.45;3.47;;;;;;;32.66;39.52;99150.75;6213330;23;20246;-87
2023/06/21 07:57:19;;;;;;;7.97;3.42;;;;;;;32.55;38.94;99144.16;6213165;23;20228;-86
2023/06/21 07:59:46;;;;;;;6.05;3.28;;;;;;;32.44;39.28;99141.31;6212290;23;20168;-86
2023/06/21 08:02:17;;;;;;;5.55;3.33;;;;;;;32.69;38.67;99134.00;6213230;23;20150;-87
2023/06/21 08:04:43;;;;;;;6.65;3.22;;;;;;;33.00;40.49;99136.63;6210817;23;20164;-88
2023/06/21 08:07:10;;;;;;;6.00;3.15;;;;;;;33.33;38.49;99128.97;6212024;23;20166;-87
2023/06/21 08:09:37;;;;;;;5.50;3.22;;;;;;;33.56;36.51;99141.09;6212680;23;20154;-87
2023/06/21 08:12:04;;;;;;;6.07;3.03;;;;;;;33.53;37.66;99136.91;6212191;23;20154;-87
2023/06/21 08:14:29;;;;;;;4.78;2.75;;;;;;;33.47;35.76;99140.53;6211903;23;20154;-87
2023/06/21 08:16:55;;;;;;;5.32;3.38;;;;;;;33.35;36.13;99137.75;6211618;23;20490;-87
2023/06/21 08:19:20;;;;;;;5.68;3.35;;;;;;;33.28;35.71;99128.03;6207527;23;20150;-87
2023/06/21 08:21:46;;;;;;;4.28;2.65;;;;;;;33.62;36.28;99132.03;6215658;23;20162;-87
2023/06/21 08:24:11;;;;;;;4.68;2.80;;;;;;;33.88;34.81;99123.53;6213392;23;20466;-87
2023/06/21 08:26:38;;;;;;;4.72;2.85;;;;;;;33.94;34.11;99126.13;6215298;23;20156;-88
2023/06/21 08:29:03;;;;;;;5.28;2.65;;;;;;;34.03;33.17;99123.09;6215241;23;20152;-87
2023/06/21 08:31:29;;;;;;;4.07;2.40;;;;;;;34.23;34.56;99124.47;6214975;23;20150;-86
2023/06/21 08:33:54;;;;;;;8.13;2.78;;;;;;;34.25;33.53;99114.19;6215083;23;20154;-87
2023/06/21 08:36:20;;;;;;;3.05;1.77;;;;;;;34.34;31.31;99117.41;6215084;23;20192;-87
2023/06/21 08:38:48;;;;;;;4.93;2.47;;;;;;;34.45;30.49;99114.72;6214979;23;20157;-87
2023/06/21 08:41:13;;;;;;;4.20;2.63;;;;;;;34.54;32.61;99118.75;6214994;23;20146;-88
2023/06/21 08:43:39;;;;;;;4.55;2.17;;;;;;;34.34;31.84;99112.81;6214684;22;20160;-87
2023/06/21 08:46:09;;;;;;;7.72;2.85;;;;;;;34.09;33.44;99119.47;6214775;23;20150;-88
2023/06/21 08:48:36;;;;;;;3.80;2.20;;;;;;;34.23;33.77;99116.31;6214818;23;20154;-88
2023/06/21 08:51:05;;;;;;;3.72;2.50;;;;;;;34.03;32.81;99123.94;6226591;23;20588;-88
2023/06/21 08:53:48;;;;;;;5.68;2.33;;;;;;;34.30;33.30;99116.22;6219258;23;20163;-88
2023/06/21 08:56:19;;;;;;;4.22;2.60;;;;;;;34.57;31.94;99117.47;6245051;22;20192;-89
2023/06/21 08:59:11;;;;;;;4.97;2.42;;;;;;;34.58;33.36;99110.97;6245227;23;20285;-88
2023/06/21 09:01:49;;;;;;;6.10;2.42;;;;;;;34.54;34.26;99107.84;6244323;23;20133;-88
2023/06/21 09:04:16;;;;;;;4.40;2.22;;;;;;;34.35;31.25;99103.59;6218499;23;20224;-89
2023/06/21 09:06:44;;;;;;;4.65;2.42;;;;;;;34.31;33.04;99112.44;6244799;23;20148;-88
2023/06/21 09:09:13;;;;;;;4.35;2.47;;;;;;;34.56;31.05;99113.09;6244570;23;20149;-89
2023/06/21 09:11:41;;;;;;;3.75;2.30;;;;;;;34.50;31.52;99106.66;6245316;23;20600;-88
2023/06/21 09:14:08;;;;;;;7.03;2.42;;;;;;;34.73;32.29;99105.03;6245541;23;20223;-88
2023/06/21 09:16:34;;;;;;;3.42;2.13;;;;;;;34.94;32.37;99107.16;6244514;23;20188;-89
2023/06/21 09:19:00;;;;;;;3.78;2.35;;;;;;;35.11;31.62;99105.44;6244992;23;20164;-88
2023/06/21 09:21:27;;;;;;;4.22;2.40;;;;;;;35.27;31.88;99107.41;6244896;23;20156;-88
2023/06/21 09:23:52;;;;;;;4.63;2.65;;;;;;;35.05;33.18;99107.22;6244012;23;20164;-89
2023/06/21 09:26:18;;;;;;;4.32;2.45;;;;;;;35.11;30.04;99103.53;6217862;23;20232;-88
2023/06/21 09:28:45;;;;;;;2.95;1.98;;;;;;;35.03;31.81;99106.59;6244208;23;20236;-88
2023/06/21 09:31:11;;;;;;;5.30;2.50;;;;;;;34.83;31.97;99108.03;6244745;23;20149;-88
2023/06/21 09:33:36;;;;;;;3.90;2.20;;;;;;;35.03;32.24;99105.75;6244095;23;20588;-89
2023/06/21 09:36:04;;;;;;;3.50;1.98;;;;;;;35.06;30.33;99110.78;6244534;23;20238;-88
2023/06/21 09:38:35;;;;;;;4.32;2.50;;;;;;;35.38;30.23;99109.25;6244682;22;20163;-88
2023/06/21 09:41:01;;;;;;;3.97;2.20;;;;;;;35.58;29.17;99112.47;6217489;23;20152;-88
2023/06/21 09:43:28;;;;;;;3.50;2.25;;;;;;;35.58;30.96;99117.91;6244600;23;20145;-89
2023/06/21 09:46:20;;;;;;;3.25;1.95;;;;;;;35.60;30.33;99114.94;6244976;23;20627;-88
2023/06/21 09:48:45;;;;;;;3.88;2.08;;;;;;;35.73;31.04;99110.03;6238161;23;20189;-88
2023/06/21 09:51:14;;;;;;;3.50;2.20;;;;;;;35.94;28.65;99110.41;6243775;23;20196;-88
2023/06/21 09:53:50;;;;;;;5.75;2.38;;;;;;;35.95;28.93;99112.91;6244837;23;20165;-88
2023/06/21 09:56:18;;;;;;;5.72;2.13;;;;;;;35.85;29.59;99109.16;6244289;23;20199;-88
2023/06/21 09:58:50;;;;;;;4.13;2.13;;;;;;;35.65;30.06;99110.41;6243787;23;20149;-88
2023/06/21 10:01:17;;;;;;;4.78;2.30;;;;;;;35.43;30.34;99112.09;6218776;23;20155;-87
2023/06/21 10:03:45;;;;;;;3.63;2.25;;;;;;;35.62;28.08;99099.97;6245358;22;20179;-88
2023/06/21 10:06:16;;;;;;;3.63;2.20;;;;;;;35.85;27.67;99114.63;6245182;23;20149;-88
2023/06/21 10:08:43;;;;;;;4.05;2.20;;;;;;;35.94;28.81;99107.69;6243763;23;20616;-88
2023/06/21 10:11:10;;;;;;;3.95;2.10;;;;;;;35.94;30.56;99107.69;6218688;23;20236;-88
2023/06/21 10:13:37;;;;;;;3.85;1.90;;;;;;;35.98;30.62;99104.22;6244985;23;20169;-88
2023/06/21 10:16:04;;;;;;;3.88;2.38;;;;;;;36.15;27.46;99104.28;6245070;23;20256;-88
2023/06/21 10:18:31;;;;;;;3.88;2.08;;;;;;;36.14;28.46;99108.09;6245131;23;20149;-88
2023/06/21 10:21:06;;;;;;;3.55;2.10;;;;;;;36.21;29.17;99111.50;6244922;23;20149;-89
2023/06/21 10:23:37;;;;;;;4.70;2.55;;;;;;;36.08;28.93;99099.00;6245006;23;20634;-88
2023/06/21 10:26:07;;;;;;;3.20;1.80;;;;;;;36.06;29.37;99100.31;6245239;23;20546;-88
2023/06/21 10:28:39;;;;;;;2.92;1.90;;;;;;;35.97;29.01;99097.09;6245083;23;20199;-89
2023/06/21 10:31:11;;;;;;;3.92;2.38;;;;;;;35.66;28.15;99090.25;6244283;23;20168;-89
2023/06/21 10:33:39;;;;;;;6.72;2.47;;;;;;;35.86;30.01;99086.25;6244222;23;20148;-88
2023/06/21 10:36:11;;;;;;;4.28;2.25;;;;;;;36.12;30.62;99089.22;6244878;22;20238;-88
2023/06/21 10:38:39;;;;;;;4.15;2.97;;;;;;;36.23;30.40;99084.75;6244145;23;20145;-89
2023/06/21 10:41:05;;;;;;;4.13;2.35;;;;;;;35.90;28.89;99084.69;6217233;23;20518;-88
2023/06/21 10:43:32;;;;;;;4.18;2.42;;;;;;;35.99;28.93;99081.31;6244722;23;20572;-89
2023/06/21 10:45:58;;;;;;;3.38;1.92;;;;;;;35.72;29.31;99078.34;6218708;23;20565;-89
2023/06/21 10:49:20;;;;;;;;;;;;;;;;;;;;;
2023/06/21 11:19:47;;;;;;;5.07;1.83;;;;;;;36.16;28.83;99065.00;6026630;23;20233;-89
2023/06/21 11:22:16;;;;;;;4.40;2.00;;;;;;;36.42;27.15;99069.81;6038062;23;20181;-90
2023/06/21 11:25:15;;;;;;;3.47;2.13;;;;;;;36.27;28.74;99070.38;6014591;23;20165;-88
2023/06/21 11:27:43;;;;;;;3.45;2.38;;;;;;;36.44;28.24;99064.06;6095682;23;20160;-90
2023/06/21 11:30:18;;;;;;;6.70;2.33;;;;;;;36.32;26.95;99066.91;6094660;23;20152;-90
2023/06/21 11:33:17;;;;;;;4.22;2.55;;;;;;;36.29;28.12;99056.47;6095542;23;20154;-89
2023/06/21 11:35:50;;;;;;;3.55;2.15;;;;;;;36.81;27.05;99055.13;6156827;23;20197;-93
2023/06/21 11:38:17;;;;;;;6.20;2.22;;;;;;;37.06;26.08;99053.84;6245253;23;20156;-89
2023/06/21 11:40:44;;;;;;;3.47;1.83;;;;;;;37.18;26.68;99051.81;6246408;23;20161;-90
2023/06/21 11:43:16;;;;;;;3.83;1.98;;;;;;;37.17;27.15;99052.88;6246437;23;20149;-89
2023/06/21 11:45:42;;;;;;;5.05;2.65;;;;;;;37.09;27.09;99054.16;6245665;23;20137;-90
2023/06/21 11:48:12;;;;;;;3.58;1.90;;;;;;;36.76;28.13;99057.78;6245811;23;20142;-90
2023/06/21 11:50:45;;;;;;;2.75;1.75;;;;;;;36.97;27.55;99058.94;6245940;23;20203;-89
2023/06/21 11:53:26;;;;;;;3.53;2.08;;;;;;;37.30;26.93;99057.97;6219763;23;20229;-90
2023/06/21 11:56:02;;;;;;;4.47;2.13;;;;;;;37.46;26.07;99047.00;6246668;23;20175;-89
2023/06/21 11:58:28;;;;;;;6.38;2.55;;;;;;;37.41;26.92;99046.94;6246138;23;20167;-91
2023/06/21 12:00:56;;;;;;;4.38;2.28;;;;;;;37.31;28.07;99048.69;6218995;23;20164;-89
2023/06/21 12:03:26;;;;;;;3.78;2.38;;;;;;;37.39;27.78;99040.88;6246476;22;20145;-90
2023/06/21 12:05:57;;;;;;;5.30;2.38;;;;;;;36.94;27.83;99049.34;6219158;23;20149;-90
2023/06/21 12:08:29;;;;;;;3.38;2.30;;;;;;;37.17;27.81;99047.44;6245622;23;20133;-90